sensor_id;sensor_type;location;lat;lon;timestamp;pressure;altitude;pressure_sealevel;temperature;humidity
31121;BME280;17770;45.966;13.632;2023-05-11T00:02:15;99985.47;;;21.85;50.76
31121;BME280;17770;45.966;13.632;2023-05-11T00:04:41;99980.09;;;21.87;50.68
31121;BME280;17770;45.966;13.632;2023-05-11T00:07:07;99974.03;;;21.86;50.43
31121;BME280;17770;45.966;13.632;2023-05-11T00:09:33;99979.28;;;21.86;50.82
31121;BME280;17770;45.966;13.632;2023-05-11T00:12:00;99974.97;;;21.85;50.57
31121;BME280;17770;45.966;13.632;2023-05-11T00:14:27;99974.84;;;21.87;50.53
31121;BME280;17770;45.966;13.632;2023-05-11T00:16:53;99961.00;;;21.85;50.81
31121;BME280;17770;45.966;13.632;2023-05-11T00:19:19;99958.63;;;21.82;50.77
31121;BME280;17770;45.966;13.632;2023-05-11T00:21:44;99956.97;;;21.81;50.49
31121;BME280;17770;45.966;13.632;2023-05-11T00:24:10;99957.09;;;21.79;50.68
31121;BME280;17770;45.966;13.632;2023-05-11T00:26:36;99959.72;;;21.79;50.76
31121;BME280;17770;45.966;13.632;2023-05-11T00:29:02;99957.22;;;21.78;50.72
31121;BME280;17770;45.966;13.632;2023-05-11T00:31:28;99955.41;;;21.78;50.95
31121;BME280;17770;45.966;13.632;2023-05-11T00:33:54;99949.47;;;21.76;50.85
31121;BME280;17770;45.966;13.632;2023-05-11T00:36:20;99944.22;;;21.76;50.69
31121;BME280;17770;45.966;13.632;2023-05-11T00:38:46;99951.22;;;21.76;50.71
31121;BME280;17770;45.966;13.632;2023-05-11T00:41:11;99947.75;;;21.75;50.95
31121;BME280;17770;45.966;13.632;2023-05-11T00:43:37;99944.31;;;21.75;50.70
31121;BME280;17770;45.966;13.632;2023-05-11T00:46:03;99946.09;;;21.74;50.86
31121;BME280;17770;45.966;13.632;2023-05-11T00:48:29;99950.50;;;21.74;50.87
31121;BME280;17770;45.966;13.632;2023-05-11T00:50:56;99947.03;;;21.73;50.69
31121;BME280;17770;45.966;13.632;2023-05-11T00:53:23;99942.63;;;21.74;50.93
31121;BME280;17770;45.966;13.632;2023-05-11T00:55:49;99947.03;;;21.73;50.66
31121;BME280;17770;45.966;13.632;2023-05-11T00:58:15;99943.25;;;21.77;50.54
31121;BME280;17770;45.966;13.632;2023-05-11T01:00:42;99941.69;;;21.75;50.59
31121;BME280;17770;45.966;13.632;2023-05-11T01:03:09;99935.59;;;21.74;50.72
31121;BME280;17770;45.966;13.632;2023-05-11T01:05:48;99927.84;;;21.73;50.83
31121;BME280;17770;45.966;13.632;2023-05-11T01:08:17;99929.63;;;21.72;50.43
31121;BME280;17770;45.966;13.632;2023-05-11T01:10:57;99922.59;;;21.73;50.75
31121;BME280;17770;45.966;13.632;2023-05-11T01:13:31;99933.25;;;21.71;50.88
31121;BME280;17770;45.966;13.632;2023-05-11T01:15:59;99930.75;;;21.70;50.44
31121;BME280;17770;45.966;13.632;2023-05-11T01:18:29;99918.56;;;21.69;50.71
31121;BME280;17770;45.966;13.632;2023-05-11T01:21:02;99929.91;;;21.69;50.75
31121;BME280;17770;45.966;13.632;2023-05-11T01:31:31;99903.53;;;21.71;50.53
31121;BME280;17770;45.966;13.632;2023-05-11T01:34:00;99904.38;;;21.71;50.52
31121;BME280;17770;45.966;13.632;2023-05-11T01:36:28;99903.66;;;21.69;50.47
31121;BME280;17770;45.966;13.632;2023-05-11T01:38:57;99900.91;;;21.71;50.65
31121;BME280;17770;45.966;13.632;2023-05-11T01:41:25;99891.38;;;21.70;50.60
31121;BME280;17770;45.966;13.632;2023-05-11T01:43:53;99891.47;;;21.68;50.47
31121;BME280;17770;45.966;13.632;2023-05-11T01:46:20;99891.59;;;21.67;50.73
31121;BME280;17770;45.966;13.632;2023-05-11T01:48:50;99884.81;;;21.64;50.59
31121;BME280;17770;45.966;13.632;2023-05-11T01:51:19;99888.28;;;21.65;50.52
31121;BME280;17770;45.966;13.632;2023-05-11T01:53:45;99890.19;;;21.63;50.72
31121;BME280;17770;45.966;13.632;2023-05-11T01:56:12;99892.69;;;21.64;50.25
31121;BME280;17770;45.966;13.632;2023-05-11T01:58:39;99888.50;;;21.62;50.84
31121;BME280;17770;45.966;13.632;2023-05-11T02:01:06;99887.69;;;21.61;50.66
31121;BME280;17770;45.966;13.632;2023-05-11T02:03:34;99893.88;;;21.60;50.77
31121;BME280;17770;45.966;13.632;2023-05-11T02:06:04;99885.06;;;21.61;50.92
31121;BME280;17770;45.966;13.632;2023-05-11T02:08:32;99887.00;;;21.59;50.91
31121;BME280;17770;45.966;13.632;2023-05-11T02:10:58;99879.97;;;21.60;50.67
31121;BME280;17770;45.966;13.632;2023-05-11T02:13:27;99873.03;;;21.59;50.74
31121;BME280;17770;45.966;13.632;2023-05-11T02:15:55;99873.88;;;21.59;50.82
31121;BME280;17770;45.966;13.632;2023-05-11T02:18:21;99865.28;;;21.57;50.55
31121;BME280;17770;45.966;13.632;2023-05-11T02:20:55;99871.38;;;21.58;50.66
31121;BME280;17770;45.966;13.632;2023-05-11T02:23:23;99863.63;;;21.56;50.78
31121;BME280;17770;45.966;13.632;2023-05-11T02:25:51;99857.53;;;21.56;50.84
31121;BME280;17770;45.966;13.632;2023-05-11T02:28:17;99856.69;;;21.55;50.71
31121;BME280;17770;45.966;13.632;2023-05-11T02:30:44;99854.91;;;21.56;50.61
31121;BME280;17770;45.966;13.632;2023-05-11T02:33:11;99864.56;;;21.55;50.76
31121;BME280;17770;45.966;13.632;2023-05-11T02:35:40;99867.31;;;21.54;50.58
31121;BME280;17770;45.966;13.632;2023-05-11T02:38:07;99861.25;;;21.53;50.75
31121;BME280;17770;45.966;13.632;2023-05-11T02:40:36;99861.25;;;21.53;50.53
31121;BME280;17770;45.966;13.632;2023-05-11T02:43:08;99865.41;;;21.56;50.39
31121;BME280;17770;45.966;13.632;2023-05-11T02:45:36;99867.19;;;21.55;50.66
31121;BME280;17770;45.966;13.632;2023-05-11T02:48:06;99862.91;;;21.54;50.48
31121;BME280;17770;45.966;13.632;2023-05-11T02:50:36;99863.75;;;21.55;50.75
31121;BME280;17770;45.966;13.632;2023-05-11T02:53:05;99852.41;;;21.54;50.52
31121;BME280;17770;45.966;13.632;2023-05-11T02:55:33;99856.94;;;21.52;50.59
31121;BME280;17770;45.966;13.632;2023-05-11T02:58:00;99859.44;;;21.54;50.44
31121;BME280;17770;45.966;13.632;2023-05-11T03:00:27;99856.00;;;21.53;50.44
31121;BME280;17770;45.966;13.632;2023-05-11T03:02:53;99860.41;;;21.53;50.44
31121;BME280;17770;45.966;13.632;2023-05-11T03:05:20;99859.56;;;21.52;50.80
31121;BME280;17770;45.966;13.632;2023-05-11T03:07:46;99853.63;;;21.50;50.68
31121;BME280;17770;45.966;13.632;2023-05-11T03:10:12;99862.31;;;21.51;50.55
31121;BME280;17770;45.966;13.632;2023-05-11T03:12:42;99861.50;;;21.50;50.66
31121;BME280;17770;45.966;13.632;2023-05-11T03:15:08;99863.44;;;21.48;50.80
31121;BME280;17770;45.966;13.632;2023-05-11T03:17:38;99865.34;;;21.46;51.03
31121;BME280;17770;45.966;13.632;2023-05-11T03:20:05;99857.47;;;21.46;50.76
31121;BME280;17770;45.966;13.632;2023-05-11T03:22:31;99860.22;;;21.45;50.47
31121;BME280;17770;45.966;13.632;2023-05-11T03:24:57;99871.53;;;21.45;50.61
31121;BME280;17770;45.966;13.632;2023-05-11T03:27:23;99858.53;;;21.44;50.47
31121;BME280;17770;45.966;13.632;2023-05-11T03:29:50;99852.47;;;21.43;50.61
31121;BME280;17770;45.966;13.632;2023-05-11T03:32:17;99855.09;;;21.43;50.52
31121;BME280;17770;45.966;13.632;2023-05-11T03:34:43;99856.88;;;21.43;50.91
31121;BME280;17770;45.966;13.632;2023-05-11T03:37:12;99865.59;;;21.43;50.87
31121;BME280;17770;45.966;13.632;2023-05-11T03:39:40;99864.75;;;21.43;50.87
31121;BME280;17770;45.966;13.632;2023-05-11T03:42:07;99868.34;;;21.42;50.69
31121;BME280;17770;45.966;13.632;2023-05-11T03:44:34;99859.63;;;21.41;50.82
31121;BME280;17770;45.966;13.632;2023-05-11T03:47:01;99858.91;;;21.39;50.42
31121;BME280;17770;45.966;13.632;2023-05-11T03:49:28;99860.56;;;21.40;50.70
31121;BME280;17770;45.966;13.632;2023-05-11T03:51:55;99851.06;;;21.39;50.62
31121;BME280;17770;45.966;13.632;2023-05-11T03:54:22;99859.75;;;21.40;50.79
31121;BME280;17770;45.966;13.632;2023-05-11T03:56:48;99853.69;;;21.39;51.21
31121;BME280;17770;45.966;13.632;2023-05-11T03:59:14;99852.84;;;21.39;51.02
31121;BME280;17770;45.966;13.632;2023-05-11T04:01:41;99843.19;;;21.39;50.74
31121;BME280;17770;45.966;13.632;2023-05-11T04:04:07;99852.03;;;21.38;50.77
31121;BME280;17770;45.966;13.632;2023-05-11T04:06:33;99852.97;;;21.37;50.69
31121;BME280;17770;45.966;13.632;2023-05-11T04:09:08;99839.03;;;21.37;50.78
31121;BME280;17770;45.966;13.632;2023-05-11T04:11:35;99843.44;;;21.36;50.80
31121;BME280;17770;45.966;13.632;2023-05-11T04:14:00;99847.03;;;21.35;50.86
31121;BME280;17770;45.966;13.632;2023-05-11T04:16:26;99848.81;;;21.35;50.51
31121;BME280;17770;45.966;13.632;2023-05-11T04:18:53;99865.41;;;21.35;50.70
31121;BME280;17770;45.966;13.632;2023-05-11T04:21:19;99854.06;;;21.35;50.92
31121;BME280;17770;45.966;13.632;2023-05-11T04:23:46;99842.84;;;21.33;50.71
31121;BME280;17770;45.966;13.632;2023-05-11T04:26:12;99852.38;;;21.34;50.81
31121;BME280;17770;45.966;13.632;2023-05-11T04:28:38;99848.94;;;21.33;50.89
31121;BME280;17770;45.966;13.632;2023-05-11T04:31:03;99859.44;;;21.33;50.62
31121;BME280;17770;45.966;13.632;2023-05-11T04:33:29;99854.31;;;21.32;50.86
31121;BME280;17770;45.966;13.632;2023-05-11T04:35:56;99861.34;;;21.31;50.81
31121;BME280;17770;45.966;13.632;2023-05-11T04:38:23;99853.47;;;21.31;51.06
31121;BME280;17770;45.966;13.632;2023-05-11T04:40:49;99852.63;;;21.31;51.00
31121;BME280;17770;45.966;13.632;2023-05-11T04:43:16;99853.59;;;21.30;51.03
31121;BME280;17770;45.966;13.632;2023-05-11T04:45:48;99855.25;;;21.31;50.90
31121;BME280;17770;45.966;13.632;2023-05-11T04:48:16;99850.97;;;21.30;50.67
31121;BME280;17770;45.966;13.632;2023-05-11T04:50:42;99852.75;;;21.29;50.97
31121;BME280;17770;45.966;13.632;2023-05-11T04:53:09;99859.78;;;21.29;50.99
31121;BME280;17770;45.966;13.632;2023-05-11T04:55:35;99850.25;;;21.28;50.97
31121;BME280;17770;45.966;13.632;2023-05-11T04:58:01;99861.59;;;21.28;50.84
31121;BME280;17770;45.966;13.632;2023-05-11T05:00:27;99864.22;;;21.28;50.62
31121;BME280;17770;45.966;13.632;2023-05-11T05:02:53;99852.88;;;21.28;50.86
31121;BME280;17770;45.966;13.632;2023-05-11T05:05:19;99856.34;;;21.28;50.52
31121;BME280;17770;45.966;13.632;2023-05-11T05:07:45;99857.28;;;21.27;50.63
31121;BME280;17770;45.966;13.632;2023-05-11T05:10:11;99860.03;;;21.26;50.88
31121;BME280;17770;45.966;13.632;2023-05-11T05:12:37;99866.97;;;21.27;50.56
31121;BME280;17770;45.966;13.632;2023-05-11T05:15:03;99865.16;;;21.27;50.88
31121;BME280;17770;45.966;13.632;2023-05-11T05:17:30;99861.72;;;21.27;50.86
31121;BME280;17770;45.966;13.632;2023-05-11T05:19:56;99868.03;;;21.24;50.91
31121;BME280;17770;45.966;13.632;2023-05-11T05:22:23;99866.25;;;21.25;50.71
31121;BME280;17770;45.966;13.632;2023-05-11T05:24:49;99863.63;;;21.25;50.69
31121;BME280;17770;45.966;13.632;2023-05-11T05:27:15;99865.28;;;21.26;50.75
31121;BME280;17770;45.966;13.632;2023-05-11T05:29:41;99862.78;;;21.24;50.60
31121;BME280;17770;45.966;13.632;2023-05-11T05:34:33;99872.44;;;21.24;50.64
31121;BME280;17770;45.966;13.632;2023-05-11T05:36:59;99846.34;;;21.22;50.72
31121;BME280;17770;45.966;13.632;2023-05-11T05:39:25;99863.88;;;21.22;50.67
31121;BME280;17770;45.966;13.632;2023-05-11T05:41:51;99859.47;;;21.22;50.74
31121;BME280;17770;45.966;13.632;2023-05-11T05:44:17;99856.16;;;21.20;50.71
31121;BME280;17770;45.966;13.632;2023-05-11T05:46:43;99856.28;;;21.19;50.72
31121;BME280;17770;45.966;13.632;2023-05-11T05:49:09;99848.41;;;21.19;50.91
31121;BME280;17770;45.966;13.632;2023-05-11T05:51:36;99850.19;;;21.18;50.92
31121;BME280;17770;45.966;13.632;2023-05-11T05:54:02;99849.22;;;21.19;50.69
31121;BME280;17770;45.966;13.632;2023-05-11T05:56:29;99842.31;;;21.18;50.78
31121;BME280;17770;45.966;13.632;2023-05-11T05:58:56;99842.31;;;21.18;50.49
31121;BME280;17770;45.966;13.632;2023-05-11T06:01:22;99811.56;;;21.20;50.87
31121;BME280;17770;45.966;13.632;2023-05-11T06:03:48;99836.81;;;21.21;50.39
31121;BME280;17770;45.966;13.632;2023-05-11T06:06:16;99851.59;;;21.22;50.71
31121;BME280;17770;45.966;13.632;2023-05-11T06:08:42;99841.09;;;21.22;50.54
31121;BME280;17770;45.966;13.632;2023-05-11T06:11:08;99839.31;;;21.23;50.54
31121;BME280;17770;45.966;13.632;2023-05-11T06:13:34;99838.59;;;21.21;50.67
31121;BME280;17770;45.966;13.632;2023-05-11T06:16:00;99842.06;;;21.21;50.40
31121;BME280;17770;45.966;13.632;2023-05-11T06:18:32;99857.94;;;21.20;50.33
31121;BME280;17770;45.966;13.632;2023-05-11T06:20:59;99842.31;;;21.18;50.46
31121;BME280;17770;45.966;13.632;2023-05-11T06:23:27;99832.75;;;21.17;50.80
31121;BME280;17770;45.966;13.632;2023-05-11T06:25:53;99831.13;;;21.16;50.47
31121;BME280;17770;45.966;13.632;2023-05-11T06:28:19;99826.72;;;21.17;50.47
31121;BME280;17770;45.966;13.632;2023-05-11T06:30:49;99833.72;;;21.16;50.39
31121;BME280;17770;45.966;13.632;2023-05-11T06:33:15;99836.22;;;21.18;50.55
31121;BME280;17770;45.966;13.632;2023-05-11T06:35:41;99832.66;;;21.19;50.28
31121;BME280;17770;45.966;13.632;2023-05-11T06:38:10;99833.59;;;21.18;50.14
31121;BME280;17770;45.966;13.632;2023-05-11T06:40:36;99833.47;;;21.19;50.12
31121;BME280;17770;45.966;13.632;2023-05-11T06:43:02;99828.22;;;21.19;50.34
31121;BME280;17770;45.966;13.632;2023-05-11T06:45:42;99841.34;;;21.19;50.43
31121;BME280;17770;45.966;13.632;2023-05-11T06:48:09;99839.69;;;21.18;50.42
31121;BME280;17770;45.966;13.632;2023-05-11T06:50:35;99842.19;;;21.20;50.49
31121;BME280;17770;45.966;13.632;2023-05-11T06:53:01;99838.72;;;21.19;50.37
31121;BME280;17770;45.966;13.632;2023-05-11T06:55:28;99830.84;;;21.19;50.39
31121;BME280;17770;45.966;13.632;2023-05-11T06:57:54;99837.78;;;21.20;50.20
31121;BME280;17770;45.966;13.632;2023-05-11T07:00:20;99838.72;;;21.19;50.12
31121;BME280;17770;45.966;13.632;2023-05-11T07:02:46;99843.03;;;21.20;50.20
31121;BME280;17770;45.966;13.632;2023-05-11T07:05:12;99837.78;;;21.20;50.20
31121;BME280;17770;45.966;13.632;2023-05-11T07:07:38;99843.97;;;21.19;50.00
31121;BME280;17770;45.966;13.632;2023-05-11T07:10:04;99840.53;;;21.19;50.43
31121;BME280;17770;45.966;13.632;2023-05-11T07:12:30;99841.34;;;21.19;50.37
31121;BME280;17770;45.966;13.632;2023-05-11T07:14:56;99844.09;;;21.18;50.25
31121;BME280;17770;45.966;13.632;2023-05-11T07:17:22;99850.19;;;21.18;50.37
31121;BME280;17770;45.966;13.632;2023-05-11T07:19:48;99851.13;;;21.17;50.80
31121;BME280;17770;45.966;13.632;2023-05-11T07:22:17;99867.69;;;21.18;49.95
31121;BME280;17770;45.966;13.632;2023-05-11T07:24:43;99875.56;;;21.18;50.16
31121;BME280;17770;45.966;13.632;2023-05-11T07:27:08;99873.06;;;21.16;49.87
31121;BME280;17770;45.966;13.632;2023-05-11T07:29:35;99866.88;;;21.17;50.23
31121;BME280;17770;45.966;13.632;2023-05-11T07:32:01;99868.53;;;21.18;50.46
31121;BME280;17770;45.966;13.632;2023-05-11T07:34:27;99866.06;;;21.17;50.21
31121;BME280;17770;45.966;13.632;2023-05-11T07:36:52;99867.69;;;21.18;49.95
31121;BME280;17770;45.966;13.632;2023-05-11T07:39:18;99873.06;;;21.16;50.27
31121;BME280;17770;45.966;13.632;2023-05-11T07:41:44;99870.44;;;21.16;50.48
31121;BME280;17770;45.966;13.632;2023-05-11T07:44:10;99869.59;;;21.16;50.12
31121;BME280;17770;45.966;13.632;2023-05-11T07:46:36;99870.44;;;21.16;50.16
31121;BME280;17770;45.966;13.632;2023-05-11T07:49:02;99861.75;;;21.16;50.21
31121;BME280;17770;45.966;13.632;2023-05-11T07:51:28;99862.59;;;21.16;50.46
31121;BME280;17770;45.966;13.632;2023-05-11T07:53:54;99876.53;;;21.17;50.26
31121;BME280;17770;45.966;13.632;2023-05-11T07:56:20;99878.31;;;21.16;50.27
31121;BME280;17770;45.966;13.632;2023-05-11T07:58:46;99881.91;;;21.15;50.20
31121;BME280;17770;45.966;13.632;2023-05-11T08:01:11;99872.34;;;21.14;50.00
31121;BME280;17770;45.966;13.632;2023-05-11T08:03:37;99868.81;;;21.15;50.09
31121;BME280;17770;45.966;13.632;2023-05-11T08:06:03;99871.56;;;21.14;50.09
31121;BME280;17770;45.966;13.632;2023-05-11T08:08:30;99871.56;;;21.14;50.20
31121;BME280;17770;45.966;13.632;2023-05-11T08:10:55;99867.13;;;21.14;50.11
31121;BME280;17770;45.966;13.632;2023-05-11T08:13:21;99870.72;;;21.13;50.35
31121;BME280;17770;45.966;13.632;2023-05-11T08:15:47;99871.44;;;21.15;50.27
31121;BME280;17770;45.966;13.632;2023-05-11T08:18:13;99872.34;;;21.14;50.21
31121;BME280;17770;45.966;13.632;2023-05-11T08:20:39;99869.88;;;21.13;50.22
31121;BME280;17770;45.966;13.632;2023-05-11T08:23:07;99881.19;;;21.13;50.26
31121;BME280;17770;45.966;13.632;2023-05-11T08:25:33;99876.78;;;21.14;50.18
31121;BME280;17770;45.966;13.632;2023-05-11T08:27:59;99870.72;;;21.13;50.09
31121;BME280;17770;45.966;13.632;2023-05-11T08:30:25;99875.09;;;21.13;50.17
31121;BME280;17770;45.966;13.632;2023-05-11T08:32:51;99870.84;;;21.12;50.02
31121;BME280;17770;45.966;13.632;2023-05-11T08:35:17;99875.22;;;21.11;50.43
31121;BME280;17770;45.966;13.632;2023-05-11T08:37:43;99872.63;;;21.11;50.05
31121;BME280;17770;45.966;13.632;2023-05-11T08:40:10;99870.84;;;21.12;50.17
31121;BME280;17770;45.966;13.632;2023-05-11T08:42:36;99869.16;;;21.11;50.90
31121;BME280;17770;45.966;13.632;2023-05-11T08:45:04;99874.25;;;21.12;50.78
31121;BME280;17770;45.966;13.632;2023-05-11T08:47:30;99875.94;;;21.13;51.44
31121;BME280;17770;45.966;13.632;2023-05-11T08:49:57;99881.31;;;21.12;51.58
31121;BME280;17770;45.966;13.632;2023-05-11T08:52:23;99875.09;;;21.13;51.40
31121;BME280;17770;45.966;13.632;2023-05-11T08:54:49;99879.50;;;21.12;51.35
31121;BME280;17770;45.966;13.632;2023-05-11T08:57:15;99882.03;;;21.14;51.41
31121;BME280;17770;45.966;13.632;2023-05-11T08:59:43;99875.94;;;21.13;51.86
31121;BME280;17770;45.966;13.632;2023-05-11T09:02:13;99874.03;;;21.15;51.59
31121;BME280;17770;45.966;13.632;2023-05-11T09:04:39;99867.84;;;21.16;51.43
31121;BME280;17770;45.966;13.632;2023-05-11T09:07:04;99863.56;;;21.15;51.87
31121;BME280;17770;45.966;13.632;2023-05-11T09:09:31;99872.09;;;21.17;51.65
31121;BME280;17770;45.966;13.632;2023-05-11T09:11:57;99872.09;;;21.17;51.71
31121;BME280;17770;45.966;13.632;2023-05-11T09:14:23;99870.19;;;21.19;51.60
31121;BME280;17770;45.966;13.632;2023-05-11T09:16:49;99868.53;;;21.18;51.47
31121;BME280;17770;45.966;13.632;2023-05-11T09:19:15;99858.06;;;21.18;51.53
31121;BME280;17770;45.966;13.632;2023-05-11T09:21:41;99863.31;;;21.18;51.87
31121;BME280;17770;45.966;13.632;2023-05-11T09:24:09;99864.16;;;21.19;51.48
31121;BME280;17770;45.966;13.632;2023-05-11T09:26:35;99869.38;;;21.19;51.67
31121;BME280;17770;45.966;13.632;2023-05-11T09:29:01;99865.94;;;21.18;51.63
31121;BME280;17770;45.966;13.632;2023-05-11T09:31:41;99868.41;;;21.20;51.63
31121;BME280;17770;45.966;13.632;2023-05-11T09:36:34;99868.41;;;21.20;51.62
31121;BME280;17770;45.966;13.632;2023-05-11T09:39:01;99868.53;;;21.18;51.87
31121;BME280;17770;45.966;13.632;2023-05-11T09:41:27;99870.31;;;21.18;51.70
31121;BME280;17770;45.966;13.632;2023-05-11T09:43:53;99871.16;;;21.18;51.81
31121;BME280;17770;45.966;13.632;2023-05-11T09:46:28;99874.63;;;21.19;51.58
31121;BME280;17770;45.966;13.632;2023-05-11T09:48:57;99870.44;;;21.16;51.51
31121;BME280;17770;45.966;13.632;2023-05-11T09:51:27;99879.16;;;21.17;51.77
31121;BME280;17770;45.966;13.632;2023-05-11T09:53:55;99879.03;;;21.18;51.89
31121;BME280;17770;45.966;13.632;2023-05-11T09:56:21;99881.78;;;21.17;51.96
31121;BME280;17770;45.966;13.632;2023-05-11T10:01:13;99869.47;;;21.17;51.61
31121;BME280;17770;45.966;13.632;2023-05-11T10:03:50;99871.03;;;21.20;51.68
31121;BME280;17770;45.966;13.632;2023-05-11T10:06:16;99872.81;;;21.19;51.40
31121;BME280;17770;45.966;13.632;2023-05-11T10:08:42;99880.69;;;21.19;51.94
31121;BME280;17770;45.966;13.632;2023-05-11T10:11:07;99884.28;;;21.18;51.88
31121;BME280;17770;45.966;13.632;2023-05-11T10:13:33;99876.41;;;21.18;51.73
31121;BME280;17770;45.966;13.632;2023-05-11T10:16:02;99874.50;;;21.20;51.29
31121;BME280;17770;45.966;13.632;2023-05-11T10:18:30;99878.91;;;21.20;50.99
31121;BME280;17770;45.966;13.632;2023-05-11T10:20:56;99877.94;;;21.21;51.05
31121;BME280;17770;45.966;13.632;2023-05-11T10:23:23;99872.69;;;21.21;51.41
31121;BME280;17770;45.966;13.632;2023-05-11T10:25:49;99870.19;;;21.19;51.45
31121;BME280;17770;45.966;13.632;2023-05-11T10:28:16;99871.88;;;21.20;51.64
31121;BME280;17770;45.966;13.632;2023-05-11T10:30:42;99874.50;;;21.20;51.53
31121;BME280;17770;45.966;13.632;2023-05-11T10:33:08;99872.81;;;21.19;51.76
31121;BME280;17770;45.966;13.632;2023-05-11T10:35:35;99866.63;;;21.20;51.98
31121;BME280;17770;45.966;13.632;2023-05-11T10:38:02;99865.78;;;21.20;52.01
31121;BME280;17770;45.966;13.632;2023-05-11T10:40:28;99864.81;;;21.21;52.02
31121;BME280;17770;45.966;13.632;2023-05-11T10:48:04;99869.13;;;21.22;51.83
31121;BME280;17770;45.966;13.632;2023-05-11T11:03:57;99864.69;;;21.22;52.22
31121;BME280;17770;45.966;13.632;2023-05-11T11:06:24;99869.94;;;21.22;51.91
31121;BME280;17770;45.966;13.632;2023-05-11T11:08:53;99876.03;;;21.23;51.92
31121;BME280;17770;45.966;13.632;2023-05-11T11:11:29;99864.69;;;21.22;52.01
31121;BME280;17770;45.966;13.632;2023-05-11T11:13:56;99872.56;;;21.22;52.04
31121;BME280;17770;45.966;13.632;2023-05-11T11:16:22;99878.53;;;21.24;52.10
31121;BME280;17770;45.966;13.632;2023-05-11T11:18:50;99875.78;;;21.26;51.67
31121;BME280;17770;45.966;13.632;2023-05-11T11:24:01;99873.16;;;21.26;51.92
31121;BME280;17770;45.966;13.632;2023-05-11T11:27:02;99881.16;;;21.24;51.92
31121;BME280;17770;45.966;13.632;2023-05-11T11:29:20;99884.50;;;21.26;51.89
31121;BME280;17770;45.966;13.632;2023-05-11T11:31:46;99889.75;;;21.26;51.89
31121;BME280;17770;45.966;13.632;2023-05-11T11:39:20;99896.63;;;21.27;52.11
31121;BME280;17770;45.966;13.632;2023-05-11T11:41:58;99898.19;;;21.30;52.04
31121;BME280;17770;45.966;13.632;2023-05-11T11:44:23;99897.47;;;21.28;51.73
31121;BME280;17770;45.966;13.632;2023-05-11T11:46:51;99898.31;;;21.28;51.43
31121;BME280;17770;45.966;13.632;2023-05-11T11:49:34;99898.44;;;21.27;52.12
31121;BME280;17770;45.966;13.632;2023-05-11T11:52:00;99900.09;;;21.28;52.07
31121;BME280;17770;45.966;13.632;2023-05-11T11:54:39;99887.84;;;21.28;52.05
31121;BME280;17770;45.966;13.632;2023-05-11T11:59:50;99900.22;;;21.26;52.33
31121;BME280;17770;45.966;13.632;2023-05-11T12:02:16;99908.94;;;21.27;52.26
31121;BME280;17770;45.966;13.632;2023-05-11T12:07:18;99910.59;;;21.28;51.64
31121;BME280;17770;45.966;13.632;2023-05-11T12:09:44;99902.72;;;21.28;52.25
31121;BME280;17770;45.966;13.632;2023-05-11T12:12:10;99899.25;;;21.27;51.77
31121;BME280;17770;45.966;13.632;2023-05-11T12:14:37;99910.47;;;21.29;52.11
31121;BME280;17770;45.966;13.632;2023-05-11T12:17:05;99898.31;;;21.28;51.46
31121;BME280;17770;45.966;13.632;2023-05-11T12:19:32;99908.69;;;21.30;51.62
31121;BME280;17770;45.966;13.632;2023-05-11T12:21:58;99909.53;;;21.30;51.68
31121;BME280;17770;45.966;13.632;2023-05-11T12:24:24;99909.63;;;21.29;51.30
31121;BME280;17770;45.966;13.632;2023-05-11T12:26:53;99907.84;;;21.29;51.62
31121;BME280;17770;45.966;13.632;2023-05-11T12:29:20;99901.66;;;21.30;51.21
31121;BME280;17770;45.966;13.632;2023-05-11T12:31:46;99897.47;;;21.28;51.29
31121;BME280;17770;45.966;13.632;2023-05-11T12:34:18;99897.22;;;21.31;51.31
31121;BME280;17770;45.966;13.632;2023-05-11T12:36:45;99899.97;;;21.29;52.47
31121;BME280;17770;45.966;13.632;2023-05-11T12:41:43;99899.84;;;21.31;51.67
31121;BME280;17770;45.966;13.632;2023-05-11T12:44:09;99902.47;;;21.31;51.54
31121;BME280;17770;45.966;13.632;2023-05-11T12:46:36;99903.44;;;21.30;51.25
31121;BME280;17770;45.966;13.632;2023-05-11T12:49:02;99897.94;;;21.33;51.48
31121;BME280;17770;45.966;13.632;2023-05-11T12:54:09;99899.84;;;21.31;51.36
31121;BME280;17770;45.966;13.632;2023-05-11T12:56:45;99904.38;;;21.29;51.44
31121;BME280;17770;45.966;13.632;2023-05-11T13:01:49;99905.09;;;21.31;51.32
31121;BME280;17770;45.966;13.632;2023-05-11T13:04:15;99901.66;;;21.30;51.41
31121;BME280;17770;45.966;13.632;2023-05-11T13:06:43;99905.94;;;21.31;51.51
31121;BME280;17770;45.966;13.632;2023-05-11T13:09:09;99906.78;;;21.32;51.33
31121;BME280;17770;45.966;13.632;2023-05-11T13:11:35;99903.31;;;21.31;51.44
31121;BME280;17770;45.966;13.632;2023-05-11T13:14:13;99911.31;;;21.30;51.24
31121;BME280;17770;45.966;13.632;2023-05-11T13:16:39;99910.34;;;21.31;51.27
31121;BME280;17770;45.966;13.632;2023-05-11T13:19:05;99910.34;;;21.31;51.50
31121;BME280;17770;45.966;13.632;2023-05-11T13:21:34;99911.06;;;21.33;51.33
31121;BME280;17770;45.966;13.632;2023-05-11T13:24:00;99913.69;;;21.33;51.40
31121;BME280;17770;45.966;13.632;2023-05-11T13:26:28;99905.81;;;21.33;51.35
31121;BME280;17770;45.966;13.632;2023-05-11T13:28:55;99912.84;;;21.32;51.32
31121;BME280;17770;45.966;13.632;2023-05-11T13:31:20;99911.06;;;21.33;51.42
31121;BME280;17770;45.966;13.632;2023-05-11T13:33:48;99910.09;;;21.34;51.41
31121;BME280;17770;45.966;13.632;2023-05-11T13:36:14;99902.34;;;21.32;51.38
31121;BME280;17770;45.966;13.632;2023-05-11T13:38:40;99909.28;;;21.33;51.55
31121;BME280;17770;45.966;13.632;2023-05-11T13:41:06;99910.22;;;21.32;51.36
31121;BME280;17770;45.966;13.632;2023-05-11T13:43:32;99911.06;;;21.33;51.50
31121;BME280;17770;45.966;13.632;2023-05-11T13:45:58;99912.72;;;21.34;51.53